sensor_id;sensor_type;location;lat;lon;timestamp;temperature;humidity
71096;DHT22;58753;49.440;11.126;2023-01-08T00:00:47;2.49;93.74
71096;DHT22;58753;49.440;11.126;2023-01-08T00:03:13;2.49;93.69
71096;DHT22;58753;49.440;11.126;2023-01-08T00:05:39;2.47;93.80
71096;DHT22;58753;49.440;11.126;2023-01-08T00:08:04;2.50;93.91
71096;DHT22;58753;49.440;11.126;2023-01-08T00:10:36;2.53;93.91
71096;DHT22;58753;49.440;11.126;2023-01-08T00:13:02;2.53;93.75
71096;DHT22;58753;49.440;11.126;2023-01-08T00:15:28;2.52;93.75
71096;DHT22;58753;49.440;11.126;2023-01-08T00:17:54;2.53;93.90
71096;DHT22;58753;49.440;11.126;2023-01-08T00:20:20;2.57;93.84
71096;DHT22;58753;49.440;11.126;2023-01-08T00:22:49;2.53;93.79
71096;DHT22;58753;49.440;11.126;2023-01-08T00:25:15;2.53;93.82
71096;DHT22;58753;49.440;11.126;2023-01-08T00:27:40;2.50;93.66
71096;DHT22;58753;49.440;11.126;2023-01-08T00:30:06;2.40;93.37
71096;DHT22;58753;49.440;11.126;2023-01-08T00:32:31;2.32;93.58
71096;DHT22;58753;49.440;11.126;2023-01-08T00:34:57;2.29;93.69
71096;DHT22;58753;49.440;11.126;2023-01-08T00:37:22;2.28;93.86
71096;DHT22;58753;49.440;11.126;2023-01-08T00:39:47;2.26;93.86
71096;DHT22;58753;49.440;11.126;2023-01-08T00:42:13;2.23;93.91
71096;DHT22;58753;49.440;11.126;2023-01-08T00:44:38;2.23;93.95
71096;DHT22;58753;49.440;11.126;2023-01-08T00:47:03;2.25;93.90
71096;DHT22;58753;49.440;11.126;2023-01-08T00:49:29;2.25;93.91
71096;DHT22;58753;49.440;11.126;2023-01-08T00:51:55;2.22;93.88
71096;DHT22;58753;49.440;11.126;2023-01-08T00:54:20;2.18;93.89
71096;DHT22;58753;49.440;11.126;2023-01-08T00:56:46;2.13;93.94
71096;DHT22;58753;49.440;11.126;2023-01-08T00:59:11;2.12;93.95
71096;DHT22;58753;49.440;11.126;2023-01-08T01:01:36;2.06;93.92
71096;DHT22;58753;49.440;11.126;2023-01-08T01:04:02;2.06;93.94
71096;DHT22;58753;49.440;11.126;2023-01-08T01:06:28;2.01;93.97
71096;DHT22;58753;49.440;11.126;2023-01-08T01:08:53;1.98;93.94
71096;DHT22;58753;49.440;11.126;2023-01-08T01:11:21;1.94;94.10
71096;DHT22;58753;49.440;11.126;2023-01-08T01:13:47;1.91;94.16
71096;DHT22;58753;49.440;11.126;2023-01-08T01:16:13;1.92;94.27
71096;DHT22;58753;49.440;11.126;2023-01-08T01:18:38;1.92;94.20
71096;DHT22;58753;49.440;11.126;2023-01-08T01:21:30;1.94;94.37
71096;DHT22;58753;49.440;11.126;2023-01-08T01:23:57;1.95;94.25
71096;DHT22;58753;49.440;11.126;2023-01-08T01:26:24;1.92;94.29
71096;DHT22;58753;49.440;11.126;2023-01-08T01:28:52;1.91;94.28
71096;DHT22;58753;49.440;11.126;2023-01-08T01:31:18;1.86;94.24
71096;DHT22;58753;49.440;11.126;2023-01-08T01:33:45;1.85;94.23
71096;DHT22;58753;49.440;11.126;2023-01-08T01:36:11;1.85;94.34
71096;DHT22;58753;49.440;11.126;2023-01-08T01:38:37;1.83;94.37
71096;DHT22;58753;49.440;11.126;2023-01-08T01:41:02;1.81;94.37
71096;DHT22;58753;49.440;11.126;2023-01-08T01:43:41;1.78;94.21
71096;DHT22;58753;49.440;11.126;2023-01-08T01:48:47;1.72;94.37
71096;DHT22;58753;49.440;11.126;2023-01-08T01:51:13;1.68;94.27
71096;DHT22;58753;49.440;11.126;2023-01-08T01:53:39;1.67;94.43
71096;DHT22;58753;49.440;11.126;2023-01-08T01:56:07;1.65;94.32
71096;DHT22;58753;49.440;11.126;2023-01-08T01:58:32;1.62;94.35
71096;DHT22;58753;49.440;11.126;2023-01-08T02:01:02;1.60;94.46
71096;DHT22;58753;49.440;11.126;2023-01-08T02:03:32;1.60;94.50
71096;DHT22;58753;49.440;11.126;2023-01-08T02:11:10;1.54;94.42
71096;DHT22;58753;49.440;11.126;2023-01-08T02:13:39;1.51;94.43
71096;DHT22;58753;49.440;11.126;2023-01-08T02:19:18;1.51;94.70
71096;DHT22;58753;49.440;11.126;2023-01-08T02:24:51;1.50;94.74
71096;DHT22;58753;49.440;11.126;2023-01-08T02:27:20;1.52;94.65
71096;DHT22;58753;49.440;11.126;2023-01-08T02:29:50;1.55;94.78
71096;DHT22;58753;49.440;11.126;2023-01-08T02:32:17;1.60;94.97
71096;DHT22;58753;49.440;11.126;2023-01-08T02:34:43;1.62;94.82
71096;DHT22;58753;49.440;11.126;2023-01-08T02:37:08;1.72;95.09
71096;DHT22;58753;49.440;11.126;2023-01-08T02:39:43;1.82;95.12
71096;DHT22;58753;49.440;11.126;2023-01-08T02:42:22;1.91;95.01
71096;DHT22;58753;49.440;11.126;2023-01-08T02:47:40;2.01;94.99
71096;DHT22;58753;49.440;11.126;2023-01-08T02:50:14;2.03;94.86
71096;DHT22;58753;49.440;11.126;2023-01-08T02:52:51;2.03;94.78
71096;DHT22;58753;49.440;11.126;2023-01-08T02:55:21;1.99;94.67
71096;DHT22;58753;49.440;11.126;2023-01-08T02:57:48;1.95;94.61
71096;DHT22;58753;49.440;11.126;2023-01-08T03:00:14;1.91;94.61
71096;DHT22;58753;49.440;11.126;2023-01-08T03:02:40;1.91;94.66
71096;DHT22;58753;49.440;11.126;2023-01-08T03:05:12;1.86;94.62
71096;DHT22;58753;49.440;11.126;2023-01-08T03:07:39;1.82;94.63
71096;DHT22;58753;49.440;11.126;2023-01-08T03:10:05;1.79;94.64
71096;DHT22;58753;49.440;11.126;2023-01-08T03:12:40;1.79;94.68
71096;DHT22;58753;49.440;11.126;2023-01-08T03:15:08;1.78;94.81
71096;DHT22;58753;49.440;11.126;2023-01-08T03:17:40;1.83;94.80
71096;DHT22;58753;49.440;11.126;2023-01-08T03:20:10;1.85;94.82
71096;DHT22;58753;49.440;11.126;2023-01-08T03:22:38;1.86;94.86
71096;DHT22;58753;49.440;11.126;2023-01-08T03:25:06;1.86;94.74
71096;DHT22;58753;49.440;11.126;2023-01-08T03:27:36;1.86;94.80
71096;DHT22;58753;49.440;11.126;2023-01-08T03:30:04;1.86;94.72
71096;DHT22;58753;49.440;11.126;2023-01-08T03:32:31;1.88;94.75
71096;DHT22;58753;49.440;11.126;2023-01-08T03:34:58;1.83;94.82
71096;DHT22;58753;49.440;11.126;2023-01-08T03:37:32;1.85;94.80
71096;DHT22;58753;49.440;11.126;2023-01-08T03:40:19;1.79;94.67
71096;DHT22;58753;49.440;11.126;2023-01-08T03:42:45;1.75;94.71
71096;DHT22;58753;49.440;11.126;2023-01-08T03:45:11;1.74;94.68
71096;DHT22;58753;49.440;11.126;2023-01-08T03:47:38;1.72;94.82
71096;DHT22;58753;49.440;11.126;2023-01-08T03:50:11;1.74;94.83
71096;DHT22;58753;49.440;11.126;2023-01-08T03:52:38;1.75;94.92
71096;DHT22;58753;49.440;11.126;2023-01-08T03:55:04;1.75;95.05
71096;DHT22;58753;49.440;11.126;2023-01-08T03:57:29;1.79;95.10
71096;DHT22;58753;49.440;11.126;2023-01-08T03:59:55;1.83;95.03
71096;DHT22;58753;49.440;11.126;2023-01-08T04:02:20;1.88;95.03
71096;DHT22;58753;49.440;11.126;2023-01-08T04:04:46;1.89;94.98
71096;DHT22;58753;49.440;11.126;2023-01-08T04:07:12;1.91;95.02
71096;DHT22;58753;49.440;11.126;2023-01-08T04:09:37;1.95;95.03
71096;DHT22;58753;49.440;11.126;2023-01-08T04:12:03;1.99;95.11
71096;DHT22;58753;49.440;11.126;2023-01-08T04:14:28;2.09;95.15
71096;DHT22;58753;49.440;11.126;2023-01-08T04:16:53;2.13;95.22
71096;DHT22;58753;49.440;11.126;2023-01-08T04:19:19;2.22;95.22
71096;DHT22;58753;49.440;11.126;2023-01-08T04:21:44;2.28;95.17
71096;DHT22;58753;49.440;11.126;2023-01-08T04:24:10;2.33;94.99
71096;DHT22;58753;49.440;11.126;2023-01-08T04:26:36;2.37;95.02
71096;DHT22;58753;49.440;11.126;2023-01-08T04:29:02;2.44;95.08
71096;DHT22;58753;49.440;11.126;2023-01-08T04:31:28;2.49;95.06
71096;DHT22;58753;49.440;11.126;2023-01-08T04:33:53;2.56;95.22
71096;DHT22;58753;49.440;11.126;2023-01-08T04:36:19;2.64;95.22
71096;DHT22;58753;49.440;11.126;2023-01-08T04:38:44;2.67;95.01
71096;DHT22;58753;49.440;11.126;2023-01-08T04:41:10;2.68;94.98
71096;DHT22;58753;49.440;11.126;2023-01-08T04:43:35;2.72;95.04
71096;DHT22;58753;49.440;11.126;2023-01-08T04:46:02;2.76;95.06
71096;DHT22;58753;49.440;11.126;2023-01-08T04:48:29;2.81;95.12
71096;DHT22;58753;49.440;11.126;2023-01-08T04:50:57;2.85;95.02
71096;DHT22;58753;49.440;11.126;2023-01-08T04:53:23;2.87;94.73
71096;DHT22;58753;49.440;11.126;2023-01-08T04:55:48;2.87;94.78
71096;DHT22;58753;49.440;11.126;2023-01-08T04:58:13;2.88;94.70
71096;DHT22;58753;49.440;11.126;2023-01-08T05:00:39;2.90;94.75
71096;DHT22;58753;49.440;11.126;2023-01-08T05:03:04;2.91;94.72
71096;DHT22;58753;49.440;11.126;2023-01-08T05:05:30;2.93;94.74
71096;DHT22;58753;49.440;11.126;2023-01-08T05:07:57;2.98;94.81
71096;DHT22;58753;49.440;11.126;2023-01-08T05:10:22;3.01;94.74
71096;DHT22;58753;49.440;11.126;2023-01-08T05:12:48;3.04;94.69
71096;DHT22;58753;49.440;11.126;2023-01-08T05:15:13;3.08;94.60
71096;DHT22;58753;49.440;11.126;2023-01-08T05:17:38;3.05;94.52
71096;DHT22;58753;49.440;11.126;2023-01-08T05:20:04;3.05;94.45
71096;DHT22;58753;49.440;11.126;2023-01-08T05:22:30;3.04;94.41
71096;DHT22;58753;49.440;11.126;2023-01-08T05:24:55;3.03;94.34
71096;DHT22;58753;49.440;11.126;2023-01-08T05:27:20;3.03;94.36
71096;DHT22;58753;49.440;11.126;2023-01-08T05:29:46;3.01;94.32
71096;DHT22;58753;49.440;11.126;2023-01-08T05:32:15;2.98;94.33
71096;DHT22;58753;49.440;11.126;2023-01-08T05:34:42;3.00;94.42
71096;DHT22;58753;49.440;11.126;2023-01-08T05:37:07;2.97;94.35
71096;DHT22;58753;49.440;11.126;2023-01-08T05:39:32;2.98;94.43
71096;DHT22;58753;49.440;11.126;2023-01-08T05:41:58;3.04;94.54
71096;DHT22;58753;49.440;11.126;2023-01-08T05:44:23;3.09;94.45
71096;DHT22;58753;49.440;11.126;2023-01-08T05:46:48;3.11;94.42
71096;DHT22;58753;49.440;11.126;2023-01-08T05:49:14;3.15;94.36
71096;DHT22;58753;49.440;11.126;2023-01-08T05:51:39;3.19;94.22
71096;DHT22;58753;49.440;11.126;2023-01-08T05:54:05;3.22;94.15
71096;DHT22;58753;49.440;11.126;2023-01-08T05:56:30;3.24;94.20
71096;DHT22;58753;49.440;11.126;2023-01-08T05:58:55;3.31;94.19
71096;DHT22;58753;49.440;11.126;2023-01-08T06:01:21;3.31;94.07
71096;DHT22;58753;49.440;11.126;2023-01-08T06:03:46;3.34;93.89
71096;DHT22;58753;49.440;11.126;2023-01-08T06:06:12;3.34;93.88
71096;DHT22;58753;49.440;11.126;2023-01-08T06:08:38;3.39;93.79
71096;DHT22;58753;49.440;11.126;2023-01-08T06:11:05;3.40;93.73
71096;DHT22;58753;49.440;11.126;2023-01-08T06:13:32;3.40;93.66
71096;DHT22;58753;49.440;11.126;2023-01-08T06:15:58;3.42;93.49
71096;DHT22;58753;49.440;11.126;2023-01-08T06:18:25;3.40;93.43
71096;DHT22;58753;49.440;11.126;2023-01-08T06:20:50;3.38;93.47
71096;DHT22;58753;49.440;11.126;2023-01-08T06:23:16;3.38;93.36
71096;DHT22;58753;49.440;11.126;2023-01-08T06:25:41;3.38;93.29
71096;DHT22;58753;49.440;11.126;2023-01-08T06:28:06;3.40;93.31
71096;DHT22;58753;49.440;11.126;2023-01-08T06:30:32;3.43;93.32
71096;DHT22;58753;49.440;11.126;2023-01-08T06:32:59;3.43;93.22
71096;DHT22;58753;49.440;11.126;2023-01-08T06:35:25;3.48;93.15
71096;DHT22;58753;49.440;11.126;2023-01-08T06:37:51;3.51;93.09
71096;DHT22;58753;49.440;11.126;2023-01-08T06:40:16;3.54;93.05
71096;DHT22;58753;49.440;11.126;2023-01-08T06:42:42;3.55;92.97
71096;DHT22;58753;49.440;11.126;2023-01-08T06:45:09;3.55;92.85
71096;DHT22;58753;49.440;11.126;2023-01-08T06:47:34;3.60;92.82
71096;DHT22;58753;49.440;11.126;2023-01-08T06:50:00;3.60;92.68
71096;DHT22;58753;49.440;11.126;2023-01-08T06:52:26;3.62;92.62
71096;DHT22;58753;49.440;11.126;2023-01-08T06:54:51;3.63;92.58
71096;DHT22;58753;49.440;11.126;2023-01-08T06:57:17;3.66;92.43
71096;DHT22;58753;49.440;11.126;2023-01-08T06:59:42;3.66;92.44
71096;DHT22;58753;49.440;11.126;2023-01-08T07:02:12;3.65;92.35
71096;DHT22;58753;49.440;11.126;2023-01-08T07:04:38;3.66;92.37
71096;DHT22;58753;49.440;11.126;2023-01-08T07:07:03;3.66;92.28
71096;DHT22;58753;49.440;11.126;2023-01-08T07:09:28;3.68;92.23
71096;DHT22;58753;49.440;11.126;2023-01-08T07:11:54;3.69;92.29
71096;DHT22;58753;49.440;11.126;2023-01-08T07:14:19;3.73;92.19
71096;DHT22;58753;49.440;11.126;2023-01-08T07:16:45;3.73;92.08
71096;DHT22;58753;49.440;11.126;2023-01-08T07:19:10;3.75;92.07
71096;DHT22;58753;49.440;11.126;2023-01-08T07:21:35;3.76;91.91
71096;DHT22;58753;49.440;11.126;2023-01-08T07:24:01;3.73;91.88
71096;DHT22;58753;49.440;11.126;2023-01-08T07:26:26;3.73;91.95
71096;DHT22;58753;49.440;11.126;2023-01-08T07:28:52;3.75;91.89
71096;DHT22;58753;49.440;11.126;2023-01-08T07:31:17;3.78;91.89
71096;DHT22;58753;49.440;11.126;2023-01-08T07:33:42;3.79;91.88
71096;DHT22;58753;49.440;11.126;2023-01-08T07:36:08;3.82;91.77
71096;DHT22;58753;49.440;11.126;2023-01-08T07:38:33;3.85;91.73
71096;DHT22;58753;49.440;11.126;2023-01-08T07:40:59;3.87;91.60
71096;DHT22;58753;49.440;11.126;2023-01-08T07:43:24;3.86;91.55
71096;DHT22;58753;49.440;11.126;2023-01-08T07:45:50;3.92;91.45
71096;DHT22;58753;49.440;11.126;2023-01-08T07:48:15;3.93;91.40
71096;DHT22;58753;49.440;11.126;2023-01-08T07:50:42;3.92;91.37
71096;DHT22;58753;49.440;11.126;2023-01-08T07:53:08;3.93;91.30
71096;DHT22;58753;49.440;11.126;2023-01-08T07:55:34;3.94;91.26
71096;DHT22;58753;49.440;11.126;2023-01-08T07:57:59;3.96;91.26
71096;DHT22;58753;49.440;11.126;2023-01-08T08:00:25;4.00;91.21
71096;DHT22;58753;49.440;11.126;2023-01-08T08:02:51;4.03;91.14
71096;DHT22;58753;49.440;11.126;2023-01-08T08:05:16;4.04;91.06
71096;DHT22;58753;49.440;11.126;2023-01-08T08:07:42;4.10;91.02
71096;DHT22;58753;49.440;11.126;2023-01-08T08:10:08;4.16;90.95
71096;DHT22;58753;49.440;11.126;2023-01-08T08:12:36;4.25;90.87
71096;DHT22;58753;49.440;11.126;2023-01-08T08:15:01;4.31;90.72
71096;DHT22;58753;49.440;11.126;2023-01-08T08:17:26;4.31;90.60
71096;DHT22;58753;49.440;11.126;2023-01-08T08:19:52;4.37;90.52
71096;DHT22;58753;49.440;11.126;2023-01-08T08:22:17;4.44;90.50
71096;DHT22;58753;49.440;11.126;2023-01-08T08:24:43;4.48;90.40
71096;DHT22;58753;49.440;11.126;2023-01-08T08:27:08;4.51;90.35
71096;DHT22;58753;49.440;11.126;2023-01-08T08:29:33;4.51;90.31
71096;DHT22;58753;49.440;11.126;2023-01-08T08:31:59;4.53;90.30
71096;DHT22;58753;49.440;11.126;2023-01-08T08:34:24;4.54;90.29
71096;DHT22;58753;49.440;11.126;2023-01-08T08:36:49;4.61;90.24
71096;DHT22;58753;49.440;11.126;2023-01-08T08:39:15;4.65;90.15
71096;DHT22;58753;49.440;11.126;2023-01-08T08:41:40;4.69;90.07
71096;DHT22;58753;49.440;11.126;2023-01-08T08:44:08;4.72;89.98
71096;DHT22;58753;49.440;11.126;2023-01-08T08:46:34;4.74;89.83
71096;DHT22;58753;49.440;11.126;2023-01-08T08:48:59;4.79;89.82
71096;DHT22;58753;49.440;11.126;2023-01-08T08:51:25;4.85;89.82
71096;DHT22;58753;49.440;11.126;2023-01-08T08:53:51;4.89;89.74
71096;DHT22;58753;49.440;11.126;2023-01-08T08:56:16;4.93;89.62
71096;DHT22;58753;49.440;11.126;2023-01-08T08:58:42;5.00;89.53
71096;DHT22;58753;49.440;11.126;2023-01-08T09:01:09;5.05;89.55
71096;DHT22;58753;49.440;11.126;2023-01-08T09:03:35;5.06;89.43
71096;DHT22;58753;49.440;11.126;2023-01-08T09:06:00;5.16;89.42
71096;DHT22;58753;49.440;11.126;2023-01-08T09:08:26;5.23;89.22
71096;DHT22;58753;49.440;11.126;2023-01-08T09:10:51;5.32;89.17
71096;DHT22;58753;49.440;11.126;2023-01-08T09:13:17;5.44;88.91
71096;DHT22;58753;49.440;11.126;2023-01-08T09:15:42;5.53;88.95
71096;DHT22;58753;49.440;11.126;2023-01-08T09:18:08;5.60;88.76
71096;DHT22;58753;49.440;11.126;2023-01-08T09:20:33;5.67;88.63
71096;DHT22;58753;49.440;11.126;2023-01-08T09:22:59;5.74;88.49
71096;DHT22;58753;49.440;11.126;2023-01-08T09:25:25;5.78;88.42
71096;DHT22;58753;49.440;11.126;2023-01-08T09:28:08;5.84;88.17
71096;DHT22;58753;49.440;11.126;2023-01-08T09:30:36;5.89;88.16
71096;DHT22;58753;49.440;11.126;2023-01-08T09:33:03;5.95;88.05
71096;DHT22;58753;49.440;11.126;2023-01-08T09:35:29;6.02;87.96
71096;DHT22;58753;49.440;11.126;2023-01-08T09:37:55;6.08;87.77
71096;DHT22;58753;49.440;11.126;2023-01-08T09:40:24;6.14;87.50
71096;DHT22;58753;49.440;11.126;2023-01-08T09:42:54;6.25;87.51
71096;DHT22;58753;49.440;11.126;2023-01-08T09:45:24;6.38;87.47
71096;DHT22;58753;49.440;11.126;2023-01-08T09:47:50;6.44;87.17
71096;DHT22;58753;49.440;11.126;2023-01-08T09:50:16;6.52;86.78
71096;DHT22;58753;49.440;11.126;2023-01-08T09:52:42;6.57;86.62
71096;DHT22;58753;49.440;11.126;2023-01-08T09:55:15;6.61;86.19
71096;DHT22;58753;49.440;11.126;2023-01-08T09:57:42;6.68;86.34
71096;DHT22;58753;49.440;11.126;2023-01-08T10:00:26;6.69;86.14
71096;DHT22;58753;49.440;11.126;2023-01-08T10:02:52;6.75;85.86
71096;DHT22;58753;49.440;11.126;2023-01-08T10:05:18;6.80;85.89
71096;DHT22;58753;49.440;11.126;2023-01-08T10:07:45;6.83;85.56
71096;DHT22;58753;49.440;11.126;2023-01-08T10:10:24;6.85;85.59
71096;DHT22;58753;49.440;11.126;2023-01-08T10:12:50;6.83;85.39
71096;DHT22;58753;49.440;11.126;2023-01-08T10:15:18;6.90;85.30
71096;DHT22;58753;49.440;11.126;2023-01-08T10:20:20;6.97;85.12
71096;DHT22;58753;49.440;11.126;2023-01-08T10:22:47;6.96;85.02
71096;DHT22;58753;49.440;11.126;2023-01-08T10:25:17;6.99;85.04
71096;DHT22;58753;49.440;11.126;2023-01-08T10:28:00;7.01;84.87
71096;DHT22;58753;49.440;11.126;2023-01-08T10:32:56;6.97;84.71
71096;DHT22;58753;49.440;11.126;2023-01-08T10:35:56;6.90;84.68
71096;DHT22;58753;49.440;11.126;2023-01-08T10:38:34;6.82;84.64
71096;DHT22;58753;49.440;11.126;2023-01-08T10:41:08;6.80;84.67
71096;DHT22;58753;49.440;11.126;2023-01-08T10:43:42;6.76;84.69
71096;DHT22;58753;49.440;11.126;2023-01-08T10:46:31;6.71;84.91
71096;DHT22;58753;49.440;11.126;2023-01-08T10:49:02;6.65;85.12
71096;DHT22;58753;49.440;11.126;2023-01-08T10:51:30;6.63;85.31
71096;DHT22;58753;49.440;11.126;2023-01-08T10:54:11;6.62;85.59
71096;DHT22;58753;49.440;11.126;2023-01-08T10:56:42;6.61;85.82
71096;DHT22;58753;49.440;11.126;2023-01-08T10:59:18;6.62;86.02
71096;DHT22;58753;49.440;11.126;2023-01-08T11:01:46;6.59;86.14
71096;DHT22;58753;49.440;11.126;2023-01-08T11:04:32;6.53;86.32
71096;DHT22;58753;49.440;11.126;2023-01-08T11:07:00;6.50;86.49
71096;DHT22;58753;49.440;11.126;2023-01-08T11:09:37;6.44;86.73
71096;DHT22;58753;49.440;11.126;2023-01-08T11:12:04;6.45;86.97
71096;DHT22;58753;49.440;11.126;2023-01-08T11:14:45;6.41;87.23
71096;DHT22;58753;49.440;11.126;2023-01-08T11:17:10;6.38;87.42
71096;DHT22;58753;49.440;11.126;2023-01-08T11:19:37;6.39;87.67
71096;DHT22;58753;49.440;11.126;2023-01-08T11:22:22;6.41;87.89
71096;DHT22;58753;49.440;11.126;2023-01-08T11:24:49;6.42;88.04
71096;DHT22;58753;49.440;11.126;2023-01-08T11:27:22;6.48;88.29
71096;DHT22;58753;49.440;11.126;2023-01-08T11:29:59;6.50;88.55
71096;DHT22;58753;49.440;11.126;2023-01-08T11:32:39;6.52;88.62
71096;DHT22;58753;49.440;11.126;2023-01-08T11:38:04;6.46;88.87
71096;DHT22;58753;49.440;11.126;2023-01-08T11:40:50;6.45;88.98
71096;DHT22;58753;49.440;11.126;2023-01-08T11:43:41;6.41;89.22
71096;DHT22;58753;49.440;11.126;2023-01-08T11:49:00;6.34;89.55
71096;DHT22;58753;49.440;11.126;2023-01-08T11:54:36;6.29;89.98
71096;DHT22;58753;49.440;11.126;2023-01-08T12:02:45;6.24;90.34
71096;DHT22;58753;49.440;11.126;2023-01-08T12:05:25;6.21;90.38
71096;DHT22;58753;49.440;11.126;2023-01-08T12:08:28;6.21;90.62
71096;DHT22;58753;49.440;11.126;2023-01-08T12:11:13;6.18;90.67
71096;DHT22;58753;49.440;11.126;2023-01-08T12:19:46;6.24;91.20
71096;DHT22;58753;49.440;11.126;2023-01-08T12:22:35;6.26;91.27
71096;DHT22;58753;49.440;11.126;2023-01-08T12:33:06;6.38;91.64
71096;DHT22;58753;49.440;11.126;2023-01-08T12:35:37;6.41;91.68
71096;DHT22;58753;49.440;11.126;2023-01-08T12:43:03;6.48;91.95
71096;DHT22;58753;49.440;11.126;2023-01-08T12:45:38;6.49;92.03
71096;DHT22;58753;49.440;11.126;2023-01-08T12:48:12;6.55;92.06
71096;DHT22;58753;49.440;11.126;2023-01-08T12:51:09;6.61;92.13
71096;DHT22;58753;49.440;11.126;2023-01-08T12:53:52;6.68;92.23
71096;DHT22;58753;49.440;11.126;2023-01-08T12:56:25;6.75;92.28
71096;DHT22;58753;49.440;11.126;2023-01-08T13:04:19;6.83;92.16
71096;DHT22;58753;49.440;11.126;2023-01-08T13:09:21;6.83;92.22
71096;DHT22;58753;49.440;11.126;2023-01-08T13:11:53;6.85;92.13
71096;DHT22;58753;49.440;11.126;2023-01-08T13:14:20;6.87;92.18
71096;DHT22;58753;49.440;11.126;2023-01-08T13:16:46;6.90;92.17
71096;DHT22;58753;49.440;11.126;2023-01-08T13:19:26;6.90;92.17
71096;DHT22;58753;49.440;11.126;2023-01-08T13:21:57;6.93;92.15
71096;DHT22;58753;49.440;11.126;2023-01-08T13:24:36;6.96;92.12
71096;DHT22;58753;49.440;11.126;2023-01-08T13:27:25;7.01;92.22
71096;DHT22;58753;49.440;11.126;2023-01-08T13:29:52;7.04;92.13
71096;DHT22;58753;49.440;11.126;2023-01-08T13:32:33;7.07;91.96
71096;DHT22;58753;49.440;11.126;2023-01-08T13:37:38;7.06;91.86
71096;DHT22;58753;49.440;11.126;2023-01-08T13:40:04;7.04;91.94
71096;DHT22;58753;49.440;11.126;2023-01-08T13:42:32;7.07;91.96
71096;DHT22;58753;49.440;11.126;2023-01-08T13:44:59;7.06;91.93
71096;DHT22;58753;49.440;11.126;2023-01-08T13:47:35;7.00;91.91
71096;DHT22;58753;49.440;11.126;2023-01-08T13:50:13;6.97;91.87
71096;DHT22;58753;49.440;11.126;2023-01-08T13:52:45;6.95;91.94
71096;DHT22;58753;49.440;11.126;2023-01-08T13:55:56;6.92;91.96
71096;DHT22;58753;49.440;11.126;2023-01-08T13:58:32;6.89;92.08
71096;DHT22;58753;49.440;11.126;2023-01-08T14:01:00;6.90;92.09
71096;DHT22;58753;49.440;11.126;2023-01-08T14:03:32;6.90;92.16
71096;DHT22;58753;49.440;11.126;2023-01-08T14:06:20;6.90;92.15
71096;DHT22;58753;49.440;11.126;2023-01-08T14:08:51;6.96;92.15
71096;DHT22;58753;49.440;11.126;2023-01-08T14:11:19;6.93;92.12
71096;DHT22;58753;49.440;11.126;2023-01-08T14:13:45;6.92;92.13
71096;DHT22;58753;49.440;11.126;2023-01-08T14:16:13;6.95;92.14
71096;DHT22;58753;49.440;11.126;2023-01-08T14:18:40;6.96;92.07
71096;DHT22;58753;49.440;11.126;2023-01-08T14:21:06;6.92;92.14
71096;DHT22;58753;49.440;11.126;2023-01-08T14:23:38;6.96;92.05
71096;DHT22;58753;49.440;11.126;2023-01-08T14:26:05;6.90;92.11
71096;DHT22;58753;49.440;11.126;2023-01-08T14:28:33;6.92;92.07
71096;DHT22;58753;49.440;11.126;2023-01-08T14:30:59;6.90;92.05
71096;DHT22;58753;49.440;11.126;2023-01-08T14:33:37;6.87;92.06
71096;DHT22;58753;49.440;11.126;2023-01-08T14:36:05;6.86;92.10
71096;DHT22;58753;49.440;11.126;2023-01-08T14:38:31;6.85;92.15
71096;DHT22;58753;49.440;11.126;2023-01-08T14:41:12;6.83;92.01
71096;DHT22;58753;49.440;11.126;2023-01-08T14:43:46;6.80;92.02
71096;DHT22;58753;49.440;11.126;2023-01-08T14:46:28;6.75;92.02
71096;DHT22;58753;49.440;11.126;2023-01-08T14:48:54;6.75;92.06
71096;DHT22;58753;49.440;11.126;2023-01-08T14:51:23;6.73;92.16
71096;DHT22;58753;49.440;11.126;2023-01-08T14:53:56;6.71;92.15
71096;DHT22;58753;49.440;11.126;2023-01-08T14:56:27;6.72;92.17
71096;DHT22;58753;49.440;11.126;2023-01-08T14:58:53;6.69;92.14
71096;DHT22;58753;49.440;11.126;2023-01-08T15:01:27;6.66;92.21
71096;DHT22;58753;49.440;11.126;2023-01-08T15:04:05;6.66;92.34
71096;DHT22;58753;49.440;11.126;2023-01-08T15:06:32;6.66;92.32
71096;DHT22;58753;49.440;11.126;2023-01-08T15:08:58;6.65;92.26
71096;DHT22;58753;49.440;11.126;2023-01-08T15:11:27;6.62;92.32
71096;DHT22;58753;49.440;11.126;2023-01-08T15:13:53;6.63;92.43
71096;DHT22;58753;49.440;11.126;2023-01-08T15:16:38;6.62;92.37
71096;DHT22;58753;49.440;11.126;2023-01-08T15:21:29;6.61;92.33
71096;DHT22;58753;49.440;11.126;2023-01-08T15:23:56;6.56;92.42
71096;DHT22;58753;49.440;11.126;2023-01-08T15:26:23;6.56;92.45
71096;DHT22;58753;49.440;11.126;2023-01-08T15:28:55;6.55;92.45
71096;DHT22;58753;49.440;11.126;2023-01-08T15:33:49;6.55;92.46
71096;DHT22;58753;49.440;11.126;2023-01-08T15:36:14;6.53;92.39
71096;DHT22;58753;49.440;11.126;2023-01-08T15:38:39;6.52;92.39
71096;DHT22;58753;49.440;11.126;2023-01-08T15:41:10;6.45;92.40
71096;DHT22;58753;49.440;11.126;2023-01-08T15:43:37;6.42;92.39
71096;DHT22;58753;49.440;11.126;2023-01-08T15:46:03;6.39;92.48
71096;DHT22;58753;49.440;11.126;2023-01-08T15:48:29;6.38;92.50
71096;DHT22;58753;49.440;11.126;2023-01-08T15:50:54;6.36;92.57
71096;DHT22;58753;49.440;11.126;2023-01-08T15:53:22;6.34;92.61
71096;DHT22;58753;49.440;11.126;2023-01-08T15:55:47;6.34;92.71
71096;DHT22;58753;49.440;11.126;2023-01-08T15:58:14;6.32;92.74
71096;DHT22;58753;49.440;11.126;2023-01-08T16:00:40;6.31;92.70
71096;DHT22;58753;49.440;11.126;2023-01-08T16:03:06;6.31;92.80
71096;DHT22;58753;49.440;11.126;2023-01-08T16:05:33;6.29;92.82
71096;DHT22;58753;49.440;11.126;2023-01-08T16:07:59;6.31;92.94
71096;DHT22;58753;49.440;11.126;2023-01-08T16:10:24;6.34;92.80
71096;DHT22;58753;49.440;11.126;2023-01-08T16:12:50;6.26;92.72
71096;DHT22;58753;49.440;11.126;2023-01-08T16:15:16;6.26;92.81
71096;DHT22;58753;49.440;11.126;2023-01-08T16:17:42;6.24;92.80
71096;DHT22;58753;49.440;11.126;2023-01-08T16:20:09;6.21;92.79
71096;DHT22;58753;49.440;11.126;2023-01-08T16:22:34;6.20;92.77
71096;DHT22;58753;49.440;11.126;2023-01-08T16:25:00;6.17;92.76
71096;DHT22;58753;49.440;11.126;2023-01-08T16:27:25;6.11;92.82
71096;DHT22;58753;49.440;11.126;2023-01-08T16:29:51;6.11;92.86
71096;DHT22;58753;49.440;11.126;2023-01-08T16:32:16;6.05;92.81
71096;DHT22;58753;49.440;11.126;2023-01-08T16:34:42;6.05;92.99
71096;DHT22;58753;49.440;11.126;2023-01-08T16:37:07;6.04;93.00
71096;DHT22;58753;49.440;11.126;2023-01-08T16:39:32;6.04;92.97
71096;DHT22;58753;49.440;11.126;2023-01-08T16:41:58;6.02;92.99
71096;DHT22;58753;49.440;11.126;2023-01-08T16:44:25;6.02;92.92
71096;DHT22;58753;49.440;11.126;2023-01-08T16:46:57;6.02;92.95
71096;DHT22;58753;49.440;11.126;2023-01-08T16:49:22;6.01;92.87